This is the latest recevied weather packets stored in our database for station/object S57XZ-11. If no packets are shown the sender has not sent any weather packets the latest 10 day(s).
| Time | Temp. | Humidity | Pressure | Rain* | Wind** | Luminosity | Snow |
|---|---|---|---|---|---|---|---|
| 1777734978 | 18.33° C | 42% | 1014.7 hPa | - | - | - | - |
| 1777733180 | 17.78° C | 43% | 1015 hPa | - | - | - | - |
| 1777723252 | 16.11° C | 44% | 1016.6 hPa | - | - | - | - |
| 1777721428 | 16.11° C | 44% | 1016.9 hPa | - | - | - | - |
| 1777705179 | 15° C | 43% | 1018.9 hPa | - | - | - | - |
| 1777698878 | 15° C | 43% | 1018.7 hPa | - | - | - | - |
| 1777655529 | 16.11° C | 41% | 1019.1 hPa | - | - | - | - |
| 1777651032 | 16.11° C | 41% | 1019 hPa | - | - | - | - |
| 1777649204 | 16.11° C | 41% | 1019.2 hPa | - | - | - | - |
| 1777648304 | 16.11° C | 41% | 1019.3 hPa | - | - | - | - |
| 1777645604 | 15.56° C | 41% | 1019.5 hPa | - | - | - | - |
| 1777642906 | 15° C | 42% | 1019.8 hPa | - | - | - | - |
| 1777641079 | 15° C | 42% | 1020.2 hPa | - | - | - | - |
| 1777640179 | 14.44° C | 42% | 1020.3 hPa | - | - | - | - |
| 1777639279 | 14.44° C | 42% | 1020.4 hPa | - | - | - | - |
| 1777618672 | 13.33° C | 41% | 1021.9 hPa | - | - | - | - |
| 1777618496 | 13.33° C | 41% | 1021.9 hPa | - | - | - | - |
| 1777617573 | 13.33° C | 41% | 1022.2 hPa | - | - | - | - |
| 1777616672 | 13.89° C | 41% | 1022 hPa | - | - | - | - |
| 1777611273 | 13.89° C | 41% | 1021.4 hPa | - | - | - | - |
| 1777603146 | 13.89° C | 41% | 1021.3 hPa | - | - | - | - |
| 1777587797 | 15° C | 41% | 1021.8 hPa | - | - | - | - |
| 1777571546 | 15.56° C | 39% | 1020.7 hPa | - | - | - | - |
| 1777569747 | 15.56° C | 39% | 1020.3 hPa | - | - | - | - |
| 1777567955 | 16.11° C | 39% | 1020.1 hPa | - | - | - | - |
* Rain since midnight (hover to see other rain measurements)
** Current wind speed in m/s (hover to see current wind gust speed)